Time;durP1;ratioP1;P1;durP2;ratioP2;P2;SDS_P1;SDS_P2;PMS_P1;PMS_P2;Temp;Humidity;BMP_temperature;BMP_pressure;BME280_temperature;BME280_humidity;BME280_pressure;Samples;Min_cycle;Max_cycle;Signal;HPM_P1;HPM_P2
2021/07/08 00:00:23;;;;;;;4.20;3.57;;;;;;;20.54;64.88;100206.02;255558;1104;115707;-66
2021/07/08 00:05:46;;;;;;;;;;;;;;;20.51;65.34;100218.23;256026;1104;115660;-66
2021/07/08 00:10:54;;;;;;;3.90;3.48;;;;;;;20.54;65.40;100211.44;257353;1104;103217;-66
2021/07/08 00:15:59;;;;;;;4.15;3.85;;;;;;;20.58;65.57;100206.25;255096;1104;117514;-65
2021/07/08 00:21:03;;;;;;;7.03;4.85;;;;;;;20.55;65.67;100214.95;255819;1104;116409;-65
2021/07/08 00:26:06;;;;;;;11.28;5.28;;;;;;;20.54;65.82;100219.56;257247;1104;116641;-66
2021/07/08 00:31:10;;;;;;;6.70;4.85;;;;;;;20.59;65.98;100218.70;257000;1104;116702;-66
2021/07/08 00:36:13;;;;;;;9.68;6.25;;;;;;;20.58;65.61;100214.38;257114;1104;117689;-66
2021/07/08 00:41:17;;;;;;;8.90;5.05;;;;;;;20.53;65.86;100217.95;255022;1104;116528;-65
2021/07/08 00:46:21;;;;;;;12.53;6.30;;;;;;;20.54;66.03;100213.34;255825;1104;116256;-65
2021/07/08 00:51:24;;;;;;;14.45;6.10;;;;;;;20.50;66.10;100224.75;255677;1104;116205;-66
2021/07/08 00:56:34;;;;;;;13.30;7.10;;;;;;;20.46;66.17;100221.03;254501;1104;116267;-65
2021/07/08 01:01:40;;;;;;;24.08;8.03;;;;;;;20.44;66.66;100219.70;254101;1104;116656;-65
2021/07/08 01:06:45;;;;;;;9.58;8.30;;;;;;;20.40;67.12;100222.17;254491;1104;116923;-65
2021/07/08 01:11:48;;;;;;;13.15;7.58;;;;;;;20.36;67.20;100223.00;255010;1104;116822;-65
2021/07/08 01:16:51;;;;;;;12.68;7.98;;;;;;;20.27;67.25;100220.11;254907;1104;116747;-65
2021/07/08 01:21:55;;;;;;;12.98;7.03;;;;;;;20.17;66.94;100228.35;254644;1104;116761;-65
2021/07/08 01:27:00;;;;;;;14.38;8.18;;;;;;;20.07;67.76;100236.56;254724;1104;117443;-65
2021/07/08 01:32:03;;;;;;;13.53;8.30;;;;;;;20.05;67.91;100238.74;254923;1104;116000;-66
2021/07/08 01:37:07;;;;;;;16.55;9.63;;;;;;;20.02;68.16;100232.00;254271;1104;115568;-66
2021/07/08 01:42:11;;;;;;;20.43;8.95;;;;;;;20.00;68.46;100228.77;254975;1104;116332;-65
2021/07/08 01:47:16;;;;;;;13.28;8.93;;;;;;;20.01;68.66;100234.98;254128;1104;205545;-65
2021/07/08 01:52:19;;;;;;;10.45;8.78;;;;;;;19.95;68.67;100225.30;256366;1104;115828;-65
2021/07/08 01:57:22;;;;;;;14.50;9.35;;;;;;;19.97;69.15;100225.83;254625;1098;116487;-66
2021/07/08 02:02:26;;;;;;;11.18;8.88;;;;;;;19.96;68.93;100238.55;255154;1104;116080;-65
2021/07/08 02:07:29;;;;;;;12.80;8.85;;;;;;;19.96;69.20;100245.86;255777;1104;115715;-65
2021/07/08 02:12:33;;;;;;;18.23;10.53;;;;;;;19.94;69.25;100242.63;255115;1104;116661;-66
2021/07/08 02:17:37;;;;;;;13.23;10.63;;;;;;;19.92;69.41;100239.39;257259;1104;115973;-66
2021/07/08 02:22:42;;;;;;;15.03;10.75;;;;;;;19.93;69.45;100239.11;256582;1104;116122;-65
2021/07/08 02:27:45;;;;;;;14.63;10.27;;;;;;;19.94;69.73;100245.33;254205;1104;115638;-65
2021/07/08 02:32:52;;;;;;;16.80;10.03;;;;;;;19.96;69.90;100248.56;257032;1104;115480;-67
2021/07/08 02:37:56;;;;;;;19.50;10.00;;;;;;;19.94;69.75;100256.16;257398;1103;122700;-67
2021/07/08 02:43:01;;;;;;;15.25;10.15;;;;;;;19.97;69.74;100261.00;256260;1103;117620;-66
2021/07/08 02:48:07;;;;;;;14.43;11.40;;;;;;;20.02;70.13;100258.25;256989;1104;118786;-66
2021/07/08 02:53:10;;;;;;;18.10;10.10;;;;;;;20.04;70.20;100239.84;256230;1104;116713;-66
2021/07/08 02:58:14;;;;;;;13.53;10.68;;;;;;;20.05;70.25;100238.74;255525;1104;117281;-66
2021/07/08 03:03:18;;;;;;;14.18;10.10;;;;;;;20.08;70.31;100247.11;254771;1104;116006;-65
2021/07/08 03:08:21;;;;;;;13.20;10.95;;;;;;;20.11;70.42;100248.44;254936;1104;115238;-66
2021/07/08 03:13:26;;;;;;;13.38;9.73;;;;;;;20.13;70.48;100260.59;257096;1104;115536;-66
2021/07/08 03:18:29;;;;;;;13.65;10.83;;;;;;;20.14;70.50;100251.38;257162;1104;115369;-66
2021/07/08 03:23:35;;;;;;;12.53;11.20;;;;;;;20.11;70.20;100262.78;256977;1104;115794;-66
2021/07/08 03:28:38;;;;;;;22.65;10.60;;;;;;;20.09;70.42;100270.38;255012;1104;115899;-66
2021/07/08 03:33:42;;;;;;;14.03;11.63;;;;;;;20.12;71.06;100269.00;254685;1104;116152;-65
2021/07/08 03:38:46;;;;;;;13.37;10.80;;;;;;;20.12;70.49;100269.00;254656;1100;116371;-66
2021/07/08 03:43:49;;;;;;;13.83;10.00;;;;;;;20.13;70.49;100266.00;255013;1104;137209;-65
2021/07/08 03:48:53;;;;;;;16.10;9.80;;;;;;;20.12;70.64;100271.70;254374;1104;116287;-66
2021/07/08 03:53:56;;;;;;;14.78;12.73;;;;;;;20.13;70.96;100276.02;255818;1104;115862;-66
2021/07/08 03:58:59;;;;;;;18.58;10.23;;;;;;;20.19;70.90;100294.62;254976;1104;115539;-66
2021/07/08 04:04:03;;;;;;;13.70;10.38;;;;;;;20.21;70.74;100294.34;254297;1104;116494;-66
2021/07/08 04:09:06;;;;;;;12.30;10.13;;;;;;;20.18;71.07;100298.41;255020;1104;117431;-66
2021/07/08 04:14:10;;;;;;;13.40;11.13;;;;;;;20.17;70.93;100304.95;254411;1104;116732;-66
2021/07/08 04:19:13;;;;;;;12.00;10.05;;;;;;;20.14;70.93;100305.52;255225;1104;116980;-65
2021/07/08 04:24:16;;;;;;;14.15;9.50;;;;;;;20.11;70.97;100322.32;255446;1097;115834;-66
2021/07/08 04:29:20;;;;;;;11.05;9.25;;;;;;;20.06;71.04;100324.26;256357;1104;115479;-65
2021/07/08 04:34:23;;;;;;;11.33;10.15;;;;;;;20.09;71.28;100320.98;257324;1104;116021;-65
2021/07/08 04:39:28;;;;;;;11.20;9.20;;;;;;;20.13;71.20;100336.38;257239;1104;115391;-66
2021/07/08 04:44:32;;;;;;;9.55;8.53;;;;;;;20.15;71.00;100341.52;257382;1104;116320;-66
2021/07/08 04:49:35;;;;;;;11.28;9.78;;;;;;;20.24;71.14;100347.10;257199;1104;114936;-66
2021/07/08 04:54:38;;;;;;;9.70;8.08;;;;;;;20.33;71.11;100358.95;257174;1104;115935;-67
2021/07/08 04:59:40;;;;;;;12.10;8.55;;;;;;;20.36;70.89;100348.36;256084;1104;115885;-66
2021/07/08 05:04:43;;;;;;;9.30;8.45;;;;;;;20.39;70.99;100342.41;254608;1104;116082;-65
2021/07/08 05:09:47;;;;;;;19.80;9.85;;;;;;;20.42;70.81;100335.62;255872;1104;117875;-66
2021/07/08 05:14:51;;;;;;;10.28;8.28;;;;;;;20.43;71.01;100335.34;255436;1098;116558;-66
2021/07/08 05:19:54;;;;;;;9.48;8.43;;;;;;;20.44;70.84;100334.24;254199;1104;116054;-66
2021/07/08 05:24:57;;;;;;;11.95;9.78;;;;;;;20.46;71.05;100334.77;254865;1098;115011;-65
2021/07/08 05:30:00;;;;;;;8.78;7.35;;;;;;;20.48;70.91;100343.38;255035;1104;115033;-65
2021/07/08 05:35:05;;;;;;;8.50;7.55;;;;;;;20.53;70.84;100339.02;255566;1099;115087;-64
2021/07/08 05:40:10;;;;;;;7.38;6.68;;;;;;;20.56;71.14;100338.45;254318;1104;115649;-65
2021/07/08 05:45:13;;;;;;;12.15;8.58;;;;;;;20.58;71.05;100350.61;254780;1104;115734;-65
2021/07/08 05:50:18;;;;;;;9.48;7.63;;;;;;;20.60;71.08;100356.55;254626;1104;115862;-65
2021/07/08 05:55:21;;;;;;;8.75;8.00;;;;;;;20.64;70.94;100367.63;255265;1104;115956;-65
2021/07/08 06:00:29;;;;;;;9.58;7.40;;;;;;;20.63;70.88;100364.11;255493;1104;115478;-66
2021/07/08 06:05:31;;;;;;;8.35;7.55;;;;;;;20.68;70.47;100368.67;254188;1104;115482;-65
2021/07/08 06:10:35;;;;;;;8.45;7.63;;;;;;;20.79;70.86;100370.20;255065;1104;115675;-66
2021/07/08 06:15:40;;;;;;;7.45;6.48;;;;;;;20.89;70.42;100397.17;254611;1104;115379;-65
2021/07/08 06:20:44;;;;;;;7.58;6.88;;;;;;;20.99;70.28;100394.36;254446;1104;115689;-66
2021/07/08 06:25:47;;;;;;;9.18;8.33;;;;;;;21.12;70.26;100373.88;257138;1104;115938;-66
2021/07/08 06:30:51;;;;;;;7.03;6.43;;;;;;;21.20;69.79;100386.80;257160;1104;115880;-65
2021/07/08 06:35:54;;;;;;;10.18;9.20;;;;;;;21.25;69.82;100391.39;256203;1104;115670;-65
2021/07/08 06:40:57;;;;;;;16.43;8.50;;;;;;;21.18;69.36;100392.52;255995;1104;116072;-65
2021/07/08 06:46:01;;;;;;;9.27;8.07;;;;;;;21.14;69.57;100391.47;257156;1104;115223;-65
2021/07/08 06:51:04;;;;;;;8.63;7.93;;;;;;;21.18;69.75;100373.53;257107;1104;115588;-65
2021/07/08 06:56:09;;;;;;;9.98;8.68;;;;;;;21.35;69.49;100358.73;257151;1104;115861;-66
2021/07/08 07:01:18;;;;;;;12.57;7.90;;;;;;;21.57;69.39;100369.82;256620;1104;117778;-65
2021/07/08 07:06:22;;;;;;;9.53;8.73;;;;;;;21.68;69.21;100365.07;257013;1104;115615;-65
2021/07/08 07:11:25;;;;;;;14.03;8.30;;;;;;;21.78;69.12;100354.05;254492;1104;115884;-65
2021/07/08 07:16:28;;;;;;;7.80;7.10;;;;;;;21.89;68.61;100349.29;254706;1104;115926;-65
2021/07/08 07:21:31;;;;;;;9.60;8.00;;;;;;;21.98;68.49;100355.67;254853;1104;115894;-64
2021/07/08 07:26:35;;;;;;;8.40;7.60;;;;;;;22.03;68.67;100356.41;254453;1104;118257;-66
2021/07/08 07:31:39;;;;;;;8.70;7.83;;;;;;;21.99;68.23;100349.95;254807;1104;175724;-65
2021/07/08 07:36:43;;;;;;;10.15;6.50;;;;;;;22.03;68.48;100325.73;254573;1104;117385;-66
2021/07/08 07:41:47;;;;;;;8.90;8.00;;;;;;;22.17;68.27;100329.31;255275;1104;116845;-65
2021/07/08 07:46:51;;;;;;;9.08;7.48;;;;;;;22.29;68.14;100320.70;254129;1104;116301;-65
2021/07/08 07:51:54;;;;;;;7.73;7.03;;;;;;;22.21;67.80;100333.05;254604;1104;116003;-65
2021/07/08 07:56:58;;;;;;;9.70;7.63;;;;;;;22.17;67.99;100337.46;254254;1104;118091;-65
2021/07/08 08:02:04;;;;;;;8.17;7.43;;;;;;;22.15;68.03;100328.80;254383;1104;115604;-66
2021/07/08 08:12:32;;;;;;;7.75;7.13;;;;;;;22.30;67.86;100320.41;255451;1104;115758;-66
2021/07/08 08:17:48;;;;;;;9.15;8.28;;;;;;;22.41;67.68;100340.84;256169;1104;115166;-66
2021/07/08 08:22:51;;;;;;;7.60;6.98;;;;;;;22.66;67.69;100327.89;254999;1099;115404;-67
2021/07/08 08:27:56;;;;;;;8.00;7.43;;;;;;;23.05;67.64;100311.13;255043;1104;115474;-67
2021/07/08 08:32:59;;;;;;;8.85;8.00;;;;;;;23.26;66.95;100325.09;255174;1104;115173;-67
2021/07/08 08:38:03;;;;;;;8.40;7.68;;;;;;;23.29;67.04;100338.09;256015;1104;115960;-67
2021/07/08 08:43:06;;;;;;;7.68;6.98;;;;;;;23.36;66.83;100333.84;257048;1104;115314;-67
2021/07/08 08:48:12;;;;;;;7.23;6.63;;;;;;;23.56;66.71;100334.53;256135;1104;115827;-67
2021/07/08 08:53:18;;;;;;;8.05;7.40;;;;;;;23.81;66.31;100336.70;256582;1098;115278;-67
2021/07/08 08:58:22;;;;;;;6.70;6.20;;;;;;;24.14;65.86;100310.83;256439;1104;115555;-67
2021/07/08 09:03:27;;;;;;;7.70;7.00;;;;;;;24.56;65.76;100322.29;255052;1104;115586;-67
2021/07/08 09:08:31;;;;;;;7.55;6.85;;;;;;;24.70;65.43;100314.02;256553;1104;116296;-67
2021/07/08 09:13:55;;;;;;;6.70;6.23;;;;;;;24.72;64.44;100341.78;254940;1100;115790;-67
2021/07/08 09:19:05;;;;;;;7.65;6.68;;;;;;;24.68;64.53;100354.42;255346;1100;115835;-67
2021/07/08 09:24:25;;;;;;;7.10;6.60;;;;;;;24.50;64.27;100346.14;254413;1104;118146;-67
2021/07/08 09:29:31;;;;;;;7.03;6.33;;;;;;;24.41;64.67;100358.94;256302;1104;115755;-67
2021/07/08 09:34:37;;;;;;;8.50;7.63;;;;;;;24.29;65.01;100374.23;254522;1104;114839;-67
2021/07/08 09:39:42;;;;;;;7.05;6.45;;;;;;;24.09;64.61;100376.32;255405;1104;115746;-67
2021/07/08 09:44:46;;;;;;;;;;;;;;;23.93;65.01;100363.36;254919;1104;115296;-67
2021/07/08 09:49:51;;;;;;;59.88;30.78;;;;;;;23.82;65.51;100385.39;256412;1100;103096;-67
2021/07/08 10:00:25;;;;;;;7.43;6.43;;;;;;;23.37;65.44;100343.63;255080;1104;116427;-67
2021/07/08 10:05:31;;;;;;;7.47;6.77;;;;;;;23.28;66.59;100350.08;254277;1104;116404;-67
2021/07/08 10:10:35;;;;;;;14.75;7.93;;;;;;;23.13;66.97;100313.95;254567;1104;116856;-67
2021/07/08 10:15:41;;;;;;;11.45;7.60;;;;;;;23.03;67.70;100337.81;254223;1104;116144;-67
2021/07/08 10:20:54;;;;;;;9.33;8.63;;;;;;;23.07;68.03;100339.63;254970;1104;117732;-68
2021/07/08 10:25:57;;;;;;;8.77;7.97;;;;;;;22.98;68.40;100348.78;255341;1104;115699;-67
2021/07/08 10:31:23;;;;;;;8.63;7.83;;;;;;;22.97;68.60;100347.98;256502;1104;115990;-68
2021/07/08 10:36:31;;;;;;;10.93;9.85;;;;;;;22.93;68.98;100346.97;254180;1104;118098;-66
2021/07/08 10:41:36;;;;;;;14.03;9.30;;;;;;;22.95;69.13;100325.72;254932;1104;116146;-68
2021/07/08 10:46:39;;;;;;;;;;;;;;;22.88;69.22;100286.48;256300;1104;116162;-68
2021/07/08 10:51:43;;;;;;;9.83;8.95;;;;;;;22.73;69.23;100276.67;258223;1104;103649;-68
2021/07/08 10:56:52;;;;;;;10.28;9.35;;;;;;;22.62;69.55;100270.66;255920;1104;116423;-68
2021/07/08 11:01:57;;;;;;;13.45;9.78;;;;;;;22.62;69.79;100258.98;255219;1104;115989;-67
2021/07/08 11:07:13;;;;;;;10.73;9.33;;;;;;;22.62;69.91;100283.44;257096;1104;115798;-68
2021/07/08 11:12:29;;;;;;;9.88;8.98;;;;;;;22.74;70.35;100313.61;257221;1104;117618;-67
2021/07/08 11:17:42;;;;;;;;;;;;;;;22.76;70.30;100331.23;254358;1104;116503;-67
2021/07/08 11:22:46;;;;;;;13.33;12.05;;;;;;;22.75;71.40;100320.66;256531;1098;103318;-67
2021/07/08 11:27:50;;;;;;;17.68;16.03;;;;;;;22.86;70.53;100319.40;254345;1104;116013;-68
2021/07/08 11:32:56;;;;;;;17.58;15.98;;;;;;;22.93;70.79;100322.50;255871;1104;116120;-67
2021/07/08 11:38:18;;;;;;;14.63;13.30;;;;;;;22.98;70.92;100335.99;254046;1104;116425;-67
2021/07/08 11:43:51;;;;;;;15.43;13.85;;;;;;;22.93;70.98;100317.06;255041;1103;116344;-65
2021/07/08 11:48:55;;;;;;;16.98;13.95;;;;;;;23.01;71.03;100308.20;254488;1104;116456;-66
2021/07/08 11:53:58;;;;;;;13.68;12.33;;;;;;;23.13;70.91;100313.95;255091;1104;116836;-67
2021/07/08 11:59:04;;;;;;;15.68;14.35;;;;;;;23.32;70.87;100300.20;253935;1104;117011;-67
2021/07/08 12:04:21;;;;;;;14.63;13.20;;;;;;;23.50;70.48;100287.58;255201;1104;116975;-67
2021/07/08 12:09:25;;;;;;;16.05;14.40;;;;;;;23.57;70.30;100298.85;254292;1104;116746;-66
2021/07/08 12:14:30;;;;;;;15.25;13.95;;;;;;;23.63;70.41;100278.57;254775;1104;116151;-66
2021/07/08 12:19:33;;;;;;;16.58;14.93;;;;;;;23.71;70.62;100286.01;254711;1100;116096;-66
2021/07/08 12:24:37;;;;;;;14.70;13.30;;;;;;;23.74;70.92;100306.37;255668;1104;115830;-67
2021/07/08 12:29:44;;;;;;;16.13;14.73;;;;;;;23.79;70.46;100293.45;254830;1104;116416;-66
2021/07/08 12:34:53;;;;;;;16.18;14.78;;;;;;;23.96;70.47;100340.96;255740;1098;116692;-67
2021/07/08 12:40:00;;;;;;;17.05;15.50;;;;;;;24.03;70.58;100349.52;255082;1104;119361;-65
2021/07/08 12:45:10;;;;;;;18.18;16.43;;;;;;;24.05;70.88;100330.94;254243;1104;116432;-65
2021/07/08 12:50:16;;;;;;;17.93;14.40;;;;;;;24.14;70.98;100318.20;255074;1103;116218;-65
2021/07/08 12:55:42;;;;;;;17.57;15.67;;;;;;;24.24;70.63;100304.30;254611;1104;117968;-66
2021/07/08 13:00:45;;;;;;;17.70;15.65;;;;;;;24.30;70.33;100294.91;256490;1104;116107;-65
2021/07/08 13:05:49;;;;;;;17.95;15.95;;;;;;;24.17;70.14;100274.77;257358;1104;115888;-68
2021/07/08 13:10:53;;;;;;;17.30;15.73;;;;;;;24.04;69.93;100234.02;255046;1099;116370;-67
2021/07/08 13:15:57;;;;;;;18.80;17.10;;;;;;;23.93;70.13;100247.08;255588;1100;116310;-68
2021/07/08 13:21:21;;;;;;;15.28;13.95;;;;;;;24.05;70.78;100255.49;256043;1104;117510;-67
2021/07/08 13:26:24;;;;;;;19.55;16.40;;;;;;;24.29;71.01;100230.64;255502;1098;117287;-67
2021/07/08 13:31:33;;;;;;;19.35;17.60;;;;;;;24.39;70.69;100215.95;254115;1104;115551;-67
2021/07/08 13:36:45;;;;;;;19.80;17.80;;;;;;;24.52;70.87;100234.09;255247;1104;115649;-69
2021/07/08 13:41:51;;;;;;;21.20;19.30;;;;;;;24.68;70.68;100238.00;255437;1104;115850;-69
2021/07/08 13:47:03;;;;;;;20.50;18.58;;;;;;;25.08;70.81;100243.39;255440;1104;116215;-67
2021/07/08 13:52:11;;;;;;;23.10;20.73;;;;;;;25.41;70.42;100241.81;254140;1104;115809;-67
2021/07/08 13:57:18;;;;;;;21.77;19.90;;;;;;;25.50;69.65;100239.09;256020;1104;115527;-67
2021/07/08 14:02:21;;;;;;;21.83;19.93;;;;;;;25.48;69.35;100223.03;254798;1104;116089;-65
2021/07/08 14:07:25;;;;;;;22.98;20.85;;;;;;;25.34;69.62;100199.78;256577;1104;115902;-67
2021/07/08 14:12:29;;;;;;;22.43;20.40;;;;;;;25.31;69.31;100197.69;255443;1104;116876;-68
2021/07/08 14:17:33;;;;;;;22.23;20.05;;;;;;;25.37;69.36;100199.14;254180;1104;115575;-68
2021/07/08 14:22:37;;;;;;;22.15;20.05;;;;;;;25.66;69.72;100191.10;255595;1104;116540;-68
2021/07/08 14:27:39;;;;;;;21.65;19.85;;;;;;;25.93;69.38;100189.91;254229;1104;115621;-68
2021/07/08 14:32:42;;;;;;;24.28;19.68;;;;;;;25.98;69.08;100178.01;255119;1104;116869;-67
2021/07/08 14:37:45;;;;;;;24.45;22.25;;;;;;;26.03;68.64;100166.88;254557;1104;116919;-67
2021/07/08 14:42:58;;;;;;;21.90;19.63;;;;;;;26.30;69.04;100160.17;254111;1099;116824;-67
2021/07/08 14:48:02;;;;;;;22.23;20.28;;;;;;;26.59;68.20;100159.42;256324;1104;116275;-70
2021/07/08 14:53:07;;;;;;;23.77;21.30;;;;;;;26.42;67.84;100152.91;254225;1104;115789;-67
2021/07/08 14:58:10;;;;;;;23.50;21.20;;;;;;;26.25;67.54;100157.64;255943;1104;115910;-67
2021/07/08 15:03:13;;;;;;;21.03;19.15;;;;;;;26.21;67.22;100159.42;255831;1104;116292;-67
2021/07/08 15:08:17;;;;;;;19.75;18.08;;;;;;;26.07;67.11;100163.17;256272;1104;116344;-67
2021/07/08 15:13:20;;;;;;;20.75;18.88;;;;;;;26.13;67.69;100161.06;257176;1104;116946;-67
2021/07/08 15:18:22;;;;;;;19.50;17.55;;;;;;;26.18;67.55;100152.69;257053;1104;115983;-67
2021/07/08 15:23:25;;;;;;;19.38;17.45;;;;;;;26.23;67.65;100138.05;257132;1104;116223;-67
2021/07/08 15:28:32;;;;;;;21.60;19.43;;;;;;;26.33;67.64;100134.94;256491;1104;115945;-68
2021/07/08 15:33:46;;;;;;;20.63;18.83;;;;;;;26.38;67.46;100142.95;256480;1104;115432;-68
2021/07/08 15:38:50;;;;;;;20.23;18.65;;;;;;;26.42;67.25;100144.70;255758;1104;116010;-69
2021/07/08 15:43:54;;;;;;;21.80;17.10;;;;;;;26.45;67.03;100135.84;255645;1104;116146;-69
2021/07/08 15:49:15;;;;;;;17.73;16.10;;;;;;;26.39;66.35;100134.43;255724;1104;116305;-69
2021/07/08 15:54:41;;;;;;;17.90;16.50;;;;;;;26.25;66.56;100133.05;254770;1104;115909;-66
2021/07/08 15:59:45;;;;;;;19.63;17.70;;;;;;;26.16;66.47;100122.95;254384;1104;116064;-67
2021/07/08 16:05:09;;;;;;;17.78;16.08;;;;;;;26.09;66.77;100121.86;255923;1104;116038;-67
2021/07/08 16:10:13;;;;;;;17.07;15.57;;;;;;;26.04;66.47;100125.58;254254;1104;117803;-67
2021/07/08 16:15:17;;;;;;;19.43;17.57;;;;;;;25.92;67.05;100120.02;255716;1104;117220;-68
2021/07/08 16:20:20;;;;;;;20.35;18.60;;;;;;;25.88;67.01;100126.46;254413;1104;117060;-67
2021/07/08 16:25:27;;;;;;;19.55;17.78;;;;;;;25.79;67.41;100124.55;255151;1104;117260;-68
2021/07/08 16:30:31;;;;;;;19.00;17.05;;;;;;;25.80;67.37;100125.36;254843;1104;116848;-68
2021/07/08 16:35:34;;;;;;;17.70;16.10;;;;;;;25.76;67.57;100124.41;255256;1104;117274;-68
2021/07/08 16:40:38;;;;;;;18.05;16.50;;;;;;;25.67;67.45;100126.38;255263;1104;118958;-67
2021/07/08 16:45:41;;;;;;;19.18;17.15;;;;;;;25.64;67.48;100127.83;254810;1104;117289;-67
2021/07/08 16:50:45;;;;;;;19.90;15.10;;;;;;;25.59;67.99;100130.70;254556;1104;117212;-67
2021/07/08 16:55:48;;;;;;;16.07;14.67;;;;;;;25.58;67.83;100129.09;255655;1098;116375;-67
2021/07/08 17:00:51;;;;;;;15.33;14.03;;;;;;;25.56;67.50;100125.08;256241;1104;115353;-67
2021/07/08 17:05:54;;;;;;;16.70;15.27;;;;;;;25.43;67.42;100126.86;256084;1104;115117;-68
2021/07/08 17:10:57;;;;;;;17.60;16.10;;;;;;;25.38;67.36;100130.56;256535;1104;116373;-67
2021/07/08 17:16:00;;;;;;;15.90;14.38;;;;;;;25.35;67.46;100125.78;254833;1104;116201;-67
2021/07/08 17:21:04;;;;;;;17.08;15.60;;;;;;;25.28;68.34;100114.55;257061;1104;115108;-67
2021/07/08 17:26:07;;;;;;;17.20;15.70;;;;;;;25.22;67.71;100101.39;257024;1104;115679;-69
2021/07/08 17:31:13;;;;;;;16.87;15.17;;;;;;;25.17;67.93;100111.34;257153;1104;116323;-69
2021/07/08 17:36:18;;;;;;;16.78;15.35;;;;;;;25.13;68.34;100096.73;256536;1104;116150;-68
2021/07/08 17:41:24;;;;;;;16.10;14.73;;;;;;;25.07;68.44;100086.34;254881;1104;116598;-69
2021/07/08 17:46:29;;;;;;;15.55;14.20;;;;;;;24.99;68.58;100081.69;254746;1104;115828;-67
2021/07/08 17:51:32;;;;;;;16.70;15.10;;;;;;;24.88;68.66;100092.08;254660;1104;116593;-69
2021/07/08 17:56:36;;;;;;;16.10;14.70;;;;;;;24.83;68.55;100090.30;255248;1099;116012;-69
2021/07/08 18:01:39;;;;;;;13.83;12.65;;;;;;;24.81;69.10;100083.57;254173;1104;116813;-66
2021/07/08 18:06:42;;;;;;;15.73;14.40;;;;;;;24.73;69.17;100089.84;254448;1104;116127;-66
2021/07/08 18:11:46;;;;;;;15.50;13.83;;;;;;;24.66;69.38;100081.34;254117;1104;116879;-68
2021/07/08 18:16:49;;;;;;;18.13;13.28;;;;;;;24.58;69.37;100082.92;254301;1104;115796;-67
2021/07/08 18:21:52;;;;;;;14.08;12.98;;;;;;;24.48;69.99;100084.03;254347;1104;116292;-67
2021/07/08 18:27:04;;;;;;;17.83;15.23;;;;;;;24.37;70.05;100081.95;254289;1099;117854;-66
2021/07/08 18:32:08;;;;;;;16.50;15.08;;;;;;;24.29;69.78;100088.97;255004;1104;116664;-67
2021/07/08 18:37:29;;;;;;;16.90;15.30;;;;;;;24.19;70.17;100081.06;255053;1100;116354;-67
2021/07/08 18:42:32;;;;;;;16.40;14.80;;;;;;;24.10;70.81;100078.33;254760;1104;116552;-68
2021/07/08 18:47:36;;;;;;;17.58;15.85;;;;;;;24.02;70.44;100081.83;254905;1104;118461;-68
2021/07/08 18:52:42;;;;;;;18.58;16.90;;;;;;;23.97;70.55;100084.69;254885;1099;116646;-68
2021/07/08 18:57:48;;;;;;;19.88;16.20;;;;;;;23.86;70.85;100083.35;255569;1104;117225;-69
2021/07/08 19:02:53;;;;;;;16.73;15.20;;;;;;;23.78;71.08;100090.39;255291;1098;117127;-69
2021/07/08 19:07:56;;;;;;;16.98;15.50;;;;;;;23.69;70.88;100086.02;254909;1104;115590;-68
2021/07/08 19:13:03;;;;;;;24.08;19.15;;;;;;;23.59;71.41;100087.08;255474;1104;117664;-67
2021/07/08 19:18:06;;;;;;;24.18;21.98;;;;;;;23.51;71.15;100098.71;256395;1104;117423;-68
2021/07/08 19:23:12;;;;;;;24.83;22.25;;;;;;;23.46;71.62;100099.64;257392;1104;117747;-67
2021/07/08 19:28:14;;;;;;;;;;;;;;;23.40;71.67;100089.19;257385;1104;117917;-68
2021/07/08 19:33:17;;;;;;;35.23;30.37;;;;;;;23.34;71.72;100085.80;258135;1104;102582;-68
2021/07/08 19:38:20;;;;;;;27.68;25.13;;;;;;;23.32;72.01;100076.34;255972;1104;115306;-68
2021/07/08 19:43:23;;;;;;;38.48;33.38;;;;;;;23.30;71.85;100079.36;255479;1100;115797;-68
2021/07/08 19:48:26;;;;;;;37.55;33.08;;;;;;;23.24;72.22;100058.04;254224;1104;115886;-67
2021/07/08 19:53:30;;;;;;;38.53;34.48;;;;;;;23.18;72.42;100052.75;256078;1104;114920;-67
2021/07/08 19:58:32;;;;;;;40.70;34.60;;;;;;;23.08;72.43;100047.56;254227;1104;116042;-67
2021/07/08 20:03:35;;;;;;;37.38;32.95;;;;;;;23.04;72.69;100021.30;255070;1104;116646;-66
2021/07/08 20:08:37;;;;;;;33.10;29.63;;;;;;;22.96;72.88;100006.53;254136;1104;115923;-67
2021/07/08 20:13:41;;;;;;;31.15;27.95;;;;;;;22.93;72.84;100000.94;254662;1104;116177;-66
2021/07/08 20:18:43;;;;;;;31.10;27.88;;;;;;;22.86;73.16;99993.21;254567;1104;115900;-66
2021/07/08 20:23:48;;;;;;;30.43;27.08;;;;;;;22.78;73.25;99993.95;254070;1104;115414;-67
2021/07/08 20:28:51;;;;;;;25.63;23.00;;;;;;;22.72;73.21;99989.71;254412;1104;116771;-66
2021/07/08 20:33:54;;;;;;;25.73;23.10;;;;;;;22.67;73.57;99996.06;255488;1100;115789;-66
2021/07/08 20:38:58;;;;;;;26.53;23.13;;;;;;;22.62;73.83;99988.06;254752;1104;135535;-67
2021/07/08 20:44:02;;;;;;;26.87;23.87;;;;;;;22.57;73.93;99971.88;255045;1104;115576;-65
2021/07/08 20:49:07;;;;;;;29.13;23.55;;;;;;;22.55;74.04;99965.95;256014;1104;115444;-66
2021/07/08 20:54:11;;;;;;;28.40;22.85;;;;;;;22.55;73.94;99976.02;254201;1104;116129;-66
2021/07/08 20:59:15;;;;;;;22.58;20.18;;;;;;;22.52;73.95;99971.99;254918;1104;115454;-65
2021/07/08 21:04:19;;;;;;;21.55;19.28;;;;;;;22.47;73.95;99964.77;255341;1104;115013;-65
2021/07/08 21:09:25;;;;;;;21.30;19.30;;;;;;;22.45;73.90;99964.27;256215;1100;115379;-67
2021/07/08 21:14:28;;;;;;;21.85;19.30;;;;;;;22.40;73.50;99956.23;255905;1104;115228;-67
2021/07/08 21:19:32;;;;;;;18.38;16.53;;;;;;;22.35;73.82;99944.68;257177;1104;115463;-68
2021/07/08 21:24:36;;;;;;;19.90;16.83;;;;;;;22.28;73.53;99934.27;257280;1104;115577;-69
2021/07/08 21:29:40;;;;;;;17.45;15.10;;;;;;;22.24;73.76;99921.61;257248;1104;115996;-68
2021/07/08 21:35:03;;;;;;;14.95;13.50;;;;;;;22.15;73.55;99897.09;255490;1104;115243;-70
2021/07/08 21:40:07;;;;;;;;;;;;;;;22.14;73.57;99879.20;255235;1104;115824;-67
2021/07/08 21:45:12;;;;;;;12.40;11.20;;;;;;;21.95;73.50;99867.69;257386;1104;103014;-67
2021/07/08 21:50:16;;;;;;;12.78;11.50;;;;;;;21.82;73.37;99872.84;255135;1099;115748;-65
2021/07/08 21:55:20;;;;;;;11.68;10.40;;;;;;;21.75;73.74;99879.78;255419;1104;115994;-65
2021/07/08 22:00:24;;;;;;;11.35;10.28;;;;;;;21.76;74.05;99894.95;254918;1104;116447;-66
2021/07/08 22:05:28;;;;;;;11.77;10.77;;;;;;;21.71;73.89;99871.45;254129;1104;116172;-66
2021/07/08 22:10:32;;;;;;;12.25;9.43;;;;;;;21.70;74.12;99856.30;254844;1104;115486;-66
2021/07/08 22:15:36;;;;;;;11.30;10.25;;;;;;;21.67;74.02;99859.63;254112;1104;115094;-65
2021/07/08 22:20:40;;;;;;;15.38;9.00;;;;;;;21.64;74.13;99881.13;254777;1104;116059;-66
2021/07/08 22:25:44;;;;;;;11.70;10.53;;;;;;;21.57;74.25;99892.39;254325;1104;115094;-65
2021/07/08 22:30:47;;;;;;;12.18;9.80;;;;;;;21.53;74.52;99896.81;254467;1104;116033;-66
2021/07/08 22:35:50;;;;;;;11.08;9.35;;;;;;;21.54;74.83;99897.61;254217;1104;115251;-65
2021/07/08 22:40:53;;;;;;;12.80;9.80;;;;;;;21.53;74.55;99891.38;254213;1104;116352;-66
2021/07/08 22:46:01;;;;;;;19.75;10.98;;;;;;;21.52;74.98;99895.20;254520;1104;115494;-66
2021/07/08 22:51:14;;;;;;;12.98;11.50;;;;;;;21.58;75.07;99909.46;255475;1104;116379;-65
2021/07/08 22:56:18;;;;;;;13.55;10.90;;;;;;;21.61;75.10;100180.95;254838;1104;117049;-65
2021/07/08 23:01:24;;;;;;;7.43;6.73;;;;;;;21.45;74.46;100166.81;254254;1104;117104;-66